createdAt,value
2019-02-11T00:00:38.541Z,4.63
2019-02-11T00:04:51.259Z,8.73
2019-02-11T00:09:05.344Z,5.77
2019-02-11T00:13:18.195Z,7.93
2019-02-11T00:17:30.760Z,6.73
2019-02-11T00:21:43.171Z,6.37
2019-02-11T00:25:55.485Z,7.43
2019-02-11T00:30:08.584Z,7.90
2019-02-11T00:34:20.933Z,6.47
2019-02-11T00:38:33.341Z,9.30
2019-02-11T00:42:46.857Z,9.97
2019-02-11T00:46:59.675Z,8.10
2019-02-11T00:51:12.138Z,10.73
2019-02-11T00:55:24.633Z,4.90
2019-02-11T00:59:37.496Z,6.47
2019-02-11T01:03:49.895Z,8.03
2019-02-11T01:08:02.209Z,7.30
2019-02-11T01:12:15.273Z,7.27
2019-02-11T01:16:27.704Z,9.53
2019-02-11T01:20:40.120Z,10.87
2019-02-11T01:24:52.971Z,10.90
2019-02-11T01:29:05.421Z,11.63
2019-02-11T01:33:17.831Z,14.83
2019-02-11T01:37:30.245Z,11.60
2019-02-11T01:41:43.132Z,13.23
2019-02-11T01:45:55.643Z,12.37
2019-02-11T01:50:09.188Z,12.90
2019-02-11T01:54:21.436Z,13.57
2019-02-11T01:58:34.329Z,14.40
2019-02-11T02:02:46.947Z,10.30
2019-02-11T02:06:59.189Z,9.77
2019-02-11T02:11:12.437Z,15.63
2019-02-11T02:15:24.908Z,11.60
2019-02-11T02:19:37.828Z,14.93
2019-02-11T02:23:50.196Z,12.63
2019-02-11T02:28:02.599Z,12.53
2019-02-11T02:32:16.516Z,10.97
2019-02-11T02:36:29.084Z,10.67
2019-02-11T02:40:41.498Z,9.07
2019-02-11T02:44:54.545Z,10.73
2019-02-11T02:49:07.140Z,8.63
2019-02-11T02:53:19.451Z,11.77
2019-02-11T02:57:32.353Z,12.37
2019-02-11T03:01:44.865Z,8.73
2019-02-11T03:05:57.687Z,11.13
2019-02-11T03:10:10.347Z,11.27
2019-02-11T03:14:22.665Z,16.20
2019-02-11T03:18:35.508Z,12.67
2019-02-11T03:22:48.013Z,12.27
2019-02-11T03:27:00.424Z,13.27
2019-02-11T03:31:13.420Z,16.67
2019-02-11T03:35:25.968Z,11.83
2019-02-11T03:39:38.288Z,14.37
2019-02-11T03:43:51.168Z,11.33
2019-02-11T03:48:03.826Z,18.03
2019-02-11T03:52:17.373Z,10.90
2019-02-11T03:56:29.346Z,19.10
2019-02-11T04:00:42.435Z,14.43
2019-02-11T04:04:54.936Z,8.57
2019-02-11T04:09:07.995Z,11.17
2019-02-11T04:13:20.571Z,12.93
2019-02-11T04:17:32.995Z,14.10
2019-02-11T04:21:45.468Z,11.97
2019-02-11T04:25:58.195Z,11.67
2019-02-11T04:30:10.853Z,12.57
2019-02-11T04:34:23.156Z,16.10
2019-02-11T04:38:35.952Z,15.57
2019-02-11T04:42:48.422Z,15.53
2019-02-11T04:47:00.824Z,14.23
2019-02-11T04:51:13.672Z,17.67
2019-02-11T04:55:26.170Z,16.17
2019-02-11T04:59:38.685Z,17.03
2019-02-11T05:03:51.539Z,19.23
2019-02-11T05:08:04.131Z,16.03
2019-02-11T05:12:16.543Z,16.67
2019-02-11T05:16:29.004Z,14.77
2019-02-11T05:20:41.817Z,19.73
2019-02-11T05:24:54.414Z,16.43
2019-02-11T05:29:06.815Z,16.53
2019-02-11T05:33:19.177Z,13.97
2019-02-11T05:37:31.920Z,14.97
2019-02-11T05:41:45.633Z,15.27
2019-02-11T05:45:58.123Z,17.37
2019-02-11T05:50:11.485Z,15.47
2019-02-11T05:54:23.875Z,16.17
2019-02-11T05:58:36.296Z,14.20
2019-02-11T06:02:49.196Z,16.63
2019-02-11T06:07:01.633Z,16.00
2019-02-11T06:11:14.623Z,12.37
2019-02-11T06:15:27.282Z,21.43
2019-02-11T06:19:40.273Z,19.60
2019-02-11T06:23:52.804Z,16.97
2019-02-11T06:28:05.049Z,19.13
2019-02-11T06:32:17.932Z,18.27
2019-02-11T06:36:30.389Z,14.93
2019-02-11T06:40:43.369Z,14.07
2019-02-11T06:44:55.935Z,13.17
2019-02-11T06:49:08.249Z,21.17
2019-02-11T06:53:21.306Z,19.47
2019-02-11T06:57:33.808Z,15.13
2019-02-11T07:01:46.209Z,14.03
2019-02-11T07:05:59.168Z,25.67
2019-02-11T07:10:11.872Z,15.33
2019-02-11T07:14:24.749Z,20.93
2019-02-11T07:18:37.309Z,22.10
2019-02-11T07:22:50.954Z,23.50
2019-02-11T07:27:03.431Z,17.03
2019-02-11T07:31:16.257Z,17.53
2019-02-11T07:35:28.772Z,13.83
2019-02-11T07:39:41.595Z,13.50
2019-02-11T07:44:02.989Z,20.03
2019-02-11T07:48:15.483Z,14.73
2019-02-11T07:52:28.737Z,13.40
2019-02-11T07:56:41.301Z,15.60
2019-02-11T08:00:54.353Z,10.77
2019-02-11T08:05:06.798Z,15.00
2019-02-11T08:09:19.777Z,10.80
2019-02-11T08:13:32.230Z,10.53
2019-02-11T08:17:46.779Z,14.80
2019-02-11T08:21:59.716Z,16.93
2019-02-11T08:26:12.034Z,14.43
2019-02-11T08:30:24.983Z,9.67
2019-02-11T08:34:37.479Z,13.97
2019-02-11T08:38:49.798Z,15.57
2019-02-11T08:43:02.203Z,17.70
2019-02-11T08:47:14.989Z,16.63
2019-02-11T08:51:27.458Z,15.47
2019-02-11T08:55:39.857Z,17.00
2019-02-11T08:59:52.717Z,13.50
2019-02-11T09:04:05.414Z,16.63
2019-02-11T09:08:18.396Z,14.33
2019-02-11T09:12:30.863Z,11.07
2019-02-11T09:16:43.176Z,14.63
2019-02-11T09:20:56.163Z,15.83
2019-02-11T09:25:09.748Z,10.47
2019-02-11T09:29:22.334Z,14.43
2019-02-11T09:33:35.152Z,14.37
2019-02-11T09:37:47.611Z,12.43
2019-02-11T09:42:00.012Z,11.00
2019-02-11T09:46:12.918Z,13.50
2019-02-11T09:50:41.876Z,11.10
2019-02-11T09:54:54.376Z,13.13
2019-02-11T09:59:07.357Z,11.07
2019-02-11T10:03:19.995Z,14.13
2019-02-11T10:07:32.424Z,12.97
2019-02-11T10:11:45.318Z,12.83
2019-02-11T10:15:57.576Z,12.80
2019-02-11T10:20:10.985Z,15.23
2019-02-11T10:24:23.335Z,13.67
2019-02-11T10:28:35.631Z,14.63
2019-02-11T10:32:48.494Z,15.43
2019-02-11T10:37:00.981Z,16.53
2019-02-11T10:41:13.289Z,15.07
2019-02-11T10:45:25.713Z,14.40
2019-02-11T10:49:38.418Z,13.27
2019-02-11T10:53:51.455Z,12.87
2019-02-11T10:58:04.196Z,12.50
2019-02-11T11:02:16.801Z,12.37
2019-02-11T11:06:29.699Z,11.87
2019-02-11T11:10:42.149Z,10.00
2019-02-11T11:14:54.565Z,13.03
2019-02-11T11:19:07.353Z,11.57
2019-02-11T11:23:19.809Z,16.70
2019-02-11T11:27:32.117Z,10.13
2019-02-11T11:31:45.016Z,17.77
2019-02-11T11:35:57.535Z,11.17
2019-02-11T11:40:10.967Z,11.00
2019-02-11T11:44:23.314Z,10.97
2019-02-11T11:48:36.106Z,9.40
2019-02-11T11:52:48.660Z,8.30
2019-02-11T11:57:01.072Z,7.30
2019-02-11T12:01:18.904Z,7.43
2019-02-11T12:05:28.375Z,6.07
2019-02-11T12:09:43.781Z,8.77
2019-02-11T12:13:55.051Z,6.43
2019-02-11T12:18:07.459Z,7.90
2019-02-11T12:22:20.343Z,8.17
2019-02-11T12:26:32.812Z,9.73
2019-02-11T12:30:46.290Z,7.93
2019-02-11T12:34:58.671Z,10.73
2019-02-11T12:39:11.609Z,8.23
2019-02-11T12:43:24.200Z,10.90
2019-02-11T12:47:36.615Z,10.70
2019-02-11T12:51:49.413Z,8.27
2019-02-11T12:56:02.881Z,7.70
2019-02-11T13:00:18.075Z,5.27
2019-02-11T13:04:30.756Z,7.53
2019-02-11T13:08:43.645Z,6.03
2019-02-11T13:12:56.252Z,6.53
2019-02-11T13:17:15.478Z,6.93
2019-02-11T13:21:22.963Z,4.90
2019-02-11T13:25:35.433Z,7.83
2019-02-11T13:29:48.415Z,10.63
2019-02-11T13:34:00.971Z,7.10
2019-02-11T13:38:13.287Z,6.67
2019-02-11T13:42:26.889Z,4.97
2019-02-11T13:46:39.726Z,5.80
2019-02-11T13:50:52.382Z,6.57
2019-02-11T13:55:04.981Z,6.27
2019-02-11T13:59:17.578Z,6.47
2019-02-11T14:03:30.042Z,3.90
2019-02-11T14:07:42.506Z,4.37
2019-02-11T14:11:56.050Z,6.23
2019-02-11T14:16:08.665Z,6.10
2019-02-11T14:20:22.926Z,7.30
2019-02-11T14:24:35.779Z,5.20
2019-02-11T14:28:49.607Z,7.03
2019-02-11T14:33:02.272Z,5.93
2019-02-11T14:37:15.051Z,9.53
2019-02-11T14:41:27.409Z,7.97
2019-02-11T14:45:42.707Z,7.60
2019-02-11T14:49:58.383Z,5.73
2019-02-11T14:54:11.010Z,6.03
2019-02-11T14:58:23.407Z,5.57
2019-02-11T15:02:35.868Z,5.60
2019-02-11T15:06:48.679Z,7.07
2019-02-11T15:11:01.171Z,5.63
2019-02-11T15:15:13.470Z,8.13
2019-02-11T15:19:26.829Z,3.87
2019-02-11T15:23:39.232Z,5.33
2019-02-11T15:27:51.925Z,9.10
2019-02-11T15:32:04.492Z,6.00
2019-02-11T15:36:16.996Z,5.10
2019-02-11T15:40:29.752Z,6.60
2019-02-11T15:44:42.321Z,5.00
2019-02-11T15:48:54.648Z,5.00
2019-02-11T15:53:07.540Z,6.90
2019-02-11T15:57:19.995Z,3.90
2019-02-11T16:01:32.777Z,6.87
2019-02-11T16:05:49.643Z,6.63
2019-02-11T16:09:59.444Z,6.37
2019-02-11T16:14:12.172Z,8.97
2019-02-11T16:18:27.742Z,5.30
2019-02-11T16:22:42.210Z,7.27
2019-02-11T16:26:54.893Z,6.87
2019-02-11T16:31:07.297Z,11.03
2019-02-11T16:35:19.620Z,7.30
2019-02-11T16:39:32.400Z,8.90
2019-02-11T16:43:45.993Z,10.20
2019-02-11T16:47:58.592Z,10.03
2019-02-11T16:52:12.049Z,5.63
2019-02-11T16:56:24.352Z,7.13
2019-02-11T17:00:37.244Z,7.27
2019-02-11T17:04:49.788Z,6.70
2019-02-11T17:09:02.956Z,6.43
2019-02-11T17:13:15.453Z,5.13
2019-02-11T17:17:27.860Z,6.60
2019-02-11T17:21:40.618Z,7.23
2019-02-11T17:25:53.249Z,5.63
2019-02-11T17:30:07.936Z,5.77
2019-02-11T17:34:20.402Z,7.07
2019-02-11T17:38:33.285Z,4.97
2019-02-11T17:42:45.741Z,8.27
2019-02-11T17:46:58.152Z,7.73
2019-02-11T17:51:11.102Z,7.93
2019-02-11T17:55:23.708Z,10.03
2019-02-11T17:59:39.410Z,6.03
2019-02-11T18:03:55.749Z,7.27
2019-02-11T18:08:11.865Z,19.03
2019-02-11T18:12:28.280Z,33.03
2019-02-11T18:16:45.862Z,8.83
2019-02-11T18:21:03.989Z,24.33
2019-02-11T18:25:22.285Z,20.97
2019-02-11T18:29:39.867Z,14.27
2019-02-11T18:34:01.140Z,13.47
2019-02-11T18:38:17.045Z,12.70
2019-02-11T18:42:33.983Z,10.87
2019-02-11T18:46:52.353Z,9.67
2019-02-11T18:51:13.685Z,7.33
2019-02-11T18:55:26.296Z,9.30
2019-02-11T18:59:39.021Z,12.03
2019-02-11T19:03:51.763Z,12.37
2019-02-11T19:08:04.220Z,7.53
2019-02-11T19:12:17.224Z,7.27
2019-02-11T19:16:29.641Z,9.47
2019-02-11T19:20:42.625Z,10.70
2019-02-11T19:24:55.156Z,24.33
2019-02-11T19:29:08.081Z,60.33
2019-02-11T19:33:20.648Z,62.97
2019-02-11T19:37:33.046Z,13.57
2019-02-11T19:41:45.937Z,11.47
2019-02-11T19:45:58.392Z,13.27
2019-02-11T19:50:12.884Z,12.50
2019-02-11T19:54:25.562Z,10.20
2019-02-11T19:58:37.889Z,9.93
2019-02-11T20:02:52.104Z,10.07
2019-02-11T20:07:04.808Z,9.73
2019-02-11T20:11:17.929Z,8.50
2019-02-11T20:15:30.425Z,9.23
2019-02-11T20:19:43.407Z,10.40
2019-02-11T20:23:55.870Z,7.93
2019-02-11T20:28:08.440Z,8.77
2019-02-11T20:32:21.164Z,22.17
2019-02-11T20:36:33.637Z,77.57
2019-02-11T20:40:46.621Z,84.93
2019-02-11T20:44:59.177Z,35.20
2019-02-11T20:49:12.161Z,20.20
2019-02-11T20:53:23.766Z,18.20
2019-02-11T20:57:36.468Z,14.87
2019-02-11T21:01:48.837Z,9.10
2019-02-11T21:06:01.885Z,11.60
2019-02-11T21:10:15.487Z,8.03
2019-02-11T21:14:28.029Z,10.13
2019-02-11T21:18:40.333Z,12.83
2019-02-11T21:22:53.745Z,11.63
2019-02-11T21:27:06.341Z,15.57
2019-02-11T21:31:19.147Z,11.47
2019-02-11T21:35:31.654Z,11.50
2019-02-11T21:39:44.631Z,10.63
2019-02-11T21:43:57.202Z,14.17
2019-02-11T21:48:09.600Z,14.13
2019-02-11T21:52:22.493Z,12.07
2019-02-11T21:56:35.052Z,11.73
2019-02-11T22:00:48.131Z,12.60
2019-02-11T22:05:00.604Z,15.33
2019-02-11T22:09:13.693Z,11.17
2019-02-11T22:13:26.252Z,13.03
2019-02-11T22:17:38.665Z,16.57
2019-02-11T22:21:50.986Z,13.33
2019-02-11T22:26:03.760Z,9.77
2019-02-11T22:30:17.924Z,10.20
2019-02-11T22:34:30.337Z,12.53
2019-02-11T22:38:42.952Z,15.10
2019-02-11T22:42:55.318Z,12.27
2019-02-11T22:47:07.722Z,14.50
2019-02-11T22:51:20.611Z,17.90
2019-02-11T22:55:33.068Z,11.07
2019-02-11T22:59:45.486Z,11.53
2019-02-11T23:03:58.635Z,14.10
2019-02-11T23:08:11.128Z,11.57
2019-02-11T23:12:24.224Z,10.70
2019-02-11T23:16:36.584Z,13.87
2019-02-11T23:20:52.027Z,10.97
2019-02-11T23:25:03.318Z,8.80
2019-02-11T23:29:15.876Z,11.73
2019-02-11T23:33:28.183Z,8.47
2019-02-11T23:37:40.655Z,9.07
2019-02-11T23:41:53.385Z,11.27
2019-02-11T23:46:05.936Z,9.57
2019-02-11T23:50:18.838Z,8.67
2019-02-11T23:54:32.772Z,7.77
2019-02-11T23:58:45.312Z,8.17
